sensor_id;sensor_type;location;lat;lon;timestamp;P1;durP1;ratioP1;P2;durP2;ratioP2
55813;SDS011;65494;42.818;0.404;2023-05-10T00:01:13;4.28;;;0.80;;
55813;SDS011;65494;42.818;0.404;2023-05-10T00:03:39;5.38;;;1.10;;
55813;SDS011;65494;42.818;0.404;2023-05-10T00:06:05;8.02;;;0.82;;
55813;SDS011;65494;42.818;0.404;2023-05-10T00:08:31;18.25;;;2.88;;
55813;SDS011;65494;42.818;0.404;2023-05-10T00:10:57;49.30;;;2.03;;
55813;SDS011;65494;42.818;0.404;2023-05-10T00:13:23;1.38;;;0.82;;
55813;SDS011;65494;42.818;0.404;2023-05-10T00:15:49;3.25;;;0.70;;
55813;SDS011;65494;42.818;0.404;2023-05-10T00:18:15;19.08;;;1.73;;
55813;SDS011;65494;42.818;0.404;2023-05-10T00:20:41;45.75;;;2.35;;
55813;SDS011;65494;42.818;0.404;2023-05-10T00:23:07;1.20;;;0.70;;
55813;SDS011;65494;42.818;0.404;2023-05-10T00:25:33;3.40;;;0.70;;
55813;SDS011;65494;42.818;0.404;2023-05-10T00:27:59;5.07;;;0.70;;
55813;SDS011;65494;42.818;0.404;2023-05-10T00:30:26;3.92;;;0.95;;
55813;SDS011;65494;42.818;0.404;2023-05-10T00:32:52;3.95;;;1.20;;
55813;SDS011;65494;42.818;0.404;2023-05-10T00:35:18;2.35;;;0.93;;
55813;SDS011;65494;42.818;0.404;2023-05-10T00:37:45;3.92;;;0.90;;
55813;SDS011;65494;42.818;0.404;2023-05-10T00:40:11;11.90;;;1.00;;
55813;SDS011;65494;42.818;0.404;2023-05-10T00:42:37;23.00;;;1.42;;
55813;SDS011;65494;42.818;0.404;2023-05-10T00:45:03;13.32;;;1.40;;
55813;SDS011;65494;42.818;0.404;2023-05-10T00:47:29;7.05;;;0.98;;
55813;SDS011;65494;42.818;0.404;2023-05-10T00:49:55;24.05;;;1.63;;
55813;SDS011;65494;42.818;0.404;2023-05-10T00:52:21;2.85;;;1.33;;
55813;SDS011;65494;42.818;0.404;2023-05-10T00:54:49;6.63;;;1.85;;
55813;SDS011;65494;42.818;0.404;2023-05-10T00:57:15;1.52;;;0.90;;
55813;SDS011;65494;42.818;0.404;2023-05-10T00:59:42;9.50;;;1.20;;
55813;SDS011;65494;42.818;0.404;2023-05-10T01:02:08;2.85;;;1.08;;
55813;SDS011;65494;42.818;0.404;2023-05-10T01:04:35;36.47;;;2.67;;
55813;SDS011;65494;42.818;0.404;2023-05-10T01:07:01;23.42;;;1.30;;
55813;SDS011;65494;42.818;0.404;2023-05-10T01:09:27;1.92;;;0.65;;
55813;SDS011;65494;42.818;0.404;2023-05-10T01:11:53;2.38;;;1.00;;
55813;SDS011;65494;42.818;0.404;2023-05-10T01:14:20;3.85;;;1.08;;
55813;SDS011;65494;42.818;0.404;2023-05-10T01:16:47;9.10;;;1.30;;
55813;SDS011;65494;42.818;0.404;2023-05-10T01:19:23;2.40;;;0.90;;
55813;SDS011;65494;42.818;0.404;2023-05-10T01:37:16;1.80;;;0.93;;
55813;SDS011;65494;42.818;0.404;2023-05-10T01:39:47;4.03;;;1.27;;
55813;SDS011;65494;42.818;0.404;2023-05-10T01:42:17;2.13;;;0.75;;
55813;SDS011;65494;42.818;0.404;2023-05-10T01:47:10;14.07;;;1.20;;
55813;SDS011;65494;42.818;0.404;2023-05-10T01:49:39;24.48;;;2.30;;
55813;SDS011;65494;42.818;0.404;2023-05-10T01:52:08;15.93;;;2.13;;
55813;SDS011;65494;42.818;0.404;2023-05-10T01:54:35;10.90;;;1.48;;
55813;SDS011;65494;42.818;0.404;2023-05-10T01:57:03;11.25;;;1.33;;
55813;SDS011;65494;42.818;0.404;2023-05-10T01:59:31;7.97;;;1.25;;
55813;SDS011;65494;42.818;0.404;2023-05-10T02:02:05;8.25;;;1.27;;
55813;SDS011;65494;42.818;0.404;2023-05-10T02:04:33;25.67;;;3.10;;
55813;SDS011;65494;42.818;0.404;2023-05-10T02:07:01;19.42;;;1.77;;
55813;SDS011;65494;42.818;0.404;2023-05-10T02:09:27;4.78;;;1.08;;
55813;SDS011;65494;42.818;0.404;2023-05-10T02:11:54;47.75;;;3.00;;
55813;SDS011;65494;42.818;0.404;2023-05-10T02:14:21;5.47;;;1.08;;
55813;SDS011;65494;42.818;0.404;2023-05-10T02:16:49;29.02;;;1.77;;
55813;SDS011;65494;42.818;0.404;2023-05-10T02:19:16;20.40;;;1.45;;
55813;SDS011;65494;42.818;0.404;2023-05-10T02:21:43;3.92;;;1.05;;
55813;SDS011;65494;42.818;0.404;2023-05-10T02:24:10;2.92;;;1.40;;
55813;SDS011;65494;42.818;0.404;2023-05-10T02:26:36;28.85;;;1.95;;
55813;SDS011;65494;42.818;0.404;2023-05-10T02:29:03;14.10;;;1.42;;
55813;SDS011;65494;42.818;0.404;2023-05-10T02:31:32;16.40;;;1.63;;
55813;SDS011;65494;42.818;0.404;2023-05-10T02:33:58;19.45;;;2.28;;
55813;SDS011;65494;42.818;0.404;2023-05-10T02:36:26;14.55;;;1.80;;
55813;SDS011;65494;42.818;0.404;2023-05-10T02:38:53;7.63;;;1.20;;
55813;SDS011;65494;42.818;0.404;2023-05-10T02:41:20;3.10;;;1.33;;
55813;SDS011;65494;42.818;0.404;2023-05-10T02:43:49;6.57;;;1.30;;
55813;SDS011;65494;42.818;0.404;2023-05-10T02:46:16;7.65;;;1.48;;
55813;SDS011;65494;42.818;0.404;2023-05-10T02:48:43;6.90;;;1.45;;
55813;SDS011;65494;42.818;0.404;2023-05-10T02:51:09;9.13;;;1.92;;
55813;SDS011;65494;42.818;0.404;2023-05-10T02:53:38;5.32;;;1.70;;
55813;SDS011;65494;42.818;0.404;2023-05-10T02:56:14;3.30;;;1.35;;
55813;SDS011;65494;42.818;0.404;2023-05-10T02:58:42;8.00;;;1.30;;
55813;SDS011;65494;42.818;0.404;2023-05-10T03:01:08;7.97;;;1.27;;
55813;SDS011;65494;42.818;0.404;2023-05-10T03:03:34;4.60;;;1.30;;
55813;SDS011;65494;42.818;0.404;2023-05-10T03:06:00;6.50;;;1.77;;
55813;SDS011;65494;42.818;0.404;2023-05-10T03:08:26;8.77;;;1.88;;
55813;SDS011;65494;42.818;0.404;2023-05-10T03:10:57;6.72;;;1.50;;
55813;SDS011;65494;42.818;0.404;2023-05-10T03:16:15;4.15;;;1.45;;
55813;SDS011;65494;42.818;0.404;2023-05-10T03:21:08;10.30;;;1.70;;
55813;SDS011;65494;42.818;0.404;2023-05-10T03:23:48;5.13;;;1.52;;
55813;SDS011;65494;42.818;0.404;2023-05-10T03:26:26;35.63;;;2.58;;
55813;SDS011;65494;42.818;0.404;2023-05-10T03:28:53;26.55;;;2.70;;
55813;SDS011;65494;42.818;0.404;2023-05-10T03:31:19;13.88;;;2.10;;
55813;SDS011;65494;42.818;0.404;2023-05-10T03:33:46;32.65;;;2.67;;
55813;SDS011;65494;42.818;0.404;2023-05-10T03:36:12;16.67;;;2.65;;
55813;SDS011;65494;42.818;0.404;2023-05-10T03:38:38;6.57;;;1.40;;
55813;SDS011;65494;42.818;0.404;2023-05-10T03:41:04;12.13;;;1.63;;
55813;SDS011;65494;42.818;0.404;2023-05-10T03:43:31;31.75;;;2.58;;
55813;SDS011;65494;42.818;0.404;2023-05-10T03:45:57;4.32;;;1.40;;
55813;SDS011;65494;42.818;0.404;2023-05-10T03:48:23;12.32;;;2.38;;
55813;SDS011;65494;42.818;0.404;2023-05-10T03:50:49;11.73;;;2.20;;
55813;SDS011;65494;42.818;0.404;2023-05-10T03:53:15;5.30;;;1.38;;
55813;SDS011;65494;42.818;0.404;2023-05-10T03:55:41;2.97;;;1.58;;
55813;SDS011;65494;42.818;0.404;2023-05-10T03:58:10;15.60;;;3.17;;
55813;SDS011;65494;42.818;0.404;2023-05-10T04:00:36;2.83;;;1.55;;
55813;SDS011;65494;42.818;0.404;2023-05-10T04:03:02;6.43;;;1.45;;
55813;SDS011;65494;42.818;0.404;2023-05-10T04:05:28;7.10;;;1.40;;
55813;SDS011;65494;42.818;0.404;2023-05-10T04:07:54;5.63;;;1.42;;
55813;SDS011;65494;42.818;0.404;2023-05-10T04:10:20;3.72;;;1.40;;
55813;SDS011;65494;42.818;0.404;2023-05-10T04:12:46;6.45;;;1.40;;
55813;SDS011;65494;42.818;0.404;2023-05-10T04:15:12;5.43;;;1.20;;
55813;SDS011;65494;42.818;0.404;2023-05-10T04:17:39;4.32;;;1.30;;
55813;SDS011;65494;42.818;0.404;2023-05-10T04:20:05;3.95;;;1.20;;
55813;SDS011;65494;42.818;0.404;2023-05-10T04:22:31;2.03;;;1.15;;
55813;SDS011;65494;42.818;0.404;2023-05-10T04:24:57;4.53;;;1.30;;
55813;SDS011;65494;42.818;0.404;2023-05-10T04:27:23;3.47;;;1.00;;
55813;SDS011;65494;42.818;0.404;2023-05-10T04:29:50;8.00;;;1.20;;
55813;SDS011;65494;42.818;0.404;2023-05-10T04:32:16;4.45;;;1.10;;
55813;SDS011;65494;42.818;0.404;2023-05-10T04:34:42;6.97;;;1.27;;
55813;SDS011;65494;42.818;0.404;2023-05-10T04:37:09;5.88;;;1.02;;
55813;SDS011;65494;42.818;0.404;2023-05-10T04:39:35;3.50;;;1.00;;
55813;SDS011;65494;42.818;0.404;2023-05-10T04:42:02;4.28;;;1.00;;
55813;SDS011;65494;42.818;0.404;2023-05-10T04:44:28;4.05;;;1.23;;
55813;SDS011;65494;42.818;0.404;2023-05-10T04:46:54;4.80;;;1.30;;
55813;SDS011;65494;42.818;0.404;2023-05-10T04:49:21;4.25;;;1.52;;
55813;SDS011;65494;42.818;0.404;2023-05-10T04:51:47;8.70;;;1.17;;
55813;SDS011;65494;42.818;0.404;2023-05-10T04:54:13;3.97;;;1.13;;
55813;SDS011;65494;42.818;0.404;2023-05-10T04:56:39;2.65;;;1.17;;
55813;SDS011;65494;42.818;0.404;2023-05-10T04:59:06;3.00;;;1.02;;
55813;SDS011;65494;42.818;0.404;2023-05-10T05:01:32;5.75;;;0.90;;
55813;SDS011;65494;42.818;0.404;2023-05-10T05:03:58;5.55;;;1.40;;
55813;SDS011;65494;42.818;0.404;2023-05-10T05:06:24;1.95;;;1.27;;
55813;SDS011;65494;42.818;0.404;2023-05-10T05:08:52;9.45;;;1.10;;
55813;SDS011;65494;42.818;0.404;2023-05-10T05:11:18;3.00;;;0.93;;
55813;SDS011;65494;42.818;0.404;2023-05-10T05:13:44;14.20;;;1.05;;
55813;SDS011;65494;42.818;0.404;2023-05-10T05:16:10;6.22;;;0.98;;
55813;SDS011;65494;42.818;0.404;2023-05-10T05:18:36;6.13;;;1.13;;
55813;SDS011;65494;42.818;0.404;2023-05-10T05:21:02;5.40;;;1.60;;
55813;SDS011;65494;42.818;0.404;2023-05-10T05:23:28;7.47;;;1.10;;
55813;SDS011;65494;42.818;0.404;2023-05-10T05:25:55;3.85;;;1.60;;
55813;SDS011;65494;42.818;0.404;2023-05-10T05:28:21;6.93;;;1.30;;
55813;SDS011;65494;42.818;0.404;2023-05-10T05:30:47;5.13;;;1.60;;
55813;SDS011;65494;42.818;0.404;2023-05-10T05:33:13;4.30;;;1.52;;
55813;SDS011;65494;42.818;0.404;2023-05-10T05:35:42;4.05;;;1.38;;
55813;SDS011;65494;42.818;0.404;2023-05-10T05:38:12;7.15;;;1.45;;
55813;SDS011;65494;42.818;0.404;2023-05-10T05:40:38;8.05;;;2.40;;
55813;SDS011;65494;42.818;0.404;2023-05-10T05:43:04;3.33;;;1.42;;
55813;SDS011;65494;42.818;0.404;2023-05-10T05:45:30;4.95;;;1.40;;
55813;SDS011;65494;42.818;0.404;2023-05-10T05:47:57;5.18;;;1.35;;
55813;SDS011;65494;42.818;0.404;2023-05-10T05:50:23;9.45;;;1.38;;
55813;SDS011;65494;42.818;0.404;2023-05-10T05:52:49;7.70;;;1.33;;
55813;SDS011;65494;42.818;0.404;2023-05-10T05:55:15;4.78;;;1.50;;
55813;SDS011;65494;42.818;0.404;2023-05-10T05:57:41;2.70;;;1.30;;
55813;SDS011;65494;42.818;0.404;2023-05-10T06:00:07;8.95;;;1.85;;
55813;SDS011;65494;42.818;0.404;2023-05-10T06:02:33;9.65;;;1.40;;
55813;SDS011;65494;42.818;0.404;2023-05-10T06:04:59;1.48;;;1.00;;
55813;SDS011;65494;42.818;0.404;2023-05-10T06:07:25;6.43;;;1.10;;
55813;SDS011;65494;42.818;0.404;2023-05-10T06:09:52;3.67;;;1.10;;
55813;SDS011;65494;42.818;0.404;2023-05-10T06:12:18;5.13;;;1.30;;
55813;SDS011;65494;42.818;0.404;2023-05-10T06:14:44;1.48;;;0.90;;
55813;SDS011;65494;42.818;0.404;2023-05-10T06:17:10;1.67;;;1.10;;
55813;SDS011;65494;42.818;0.404;2023-05-10T06:19:36;1.92;;;0.88;;
55813;SDS011;65494;42.818;0.404;2023-05-10T06:22:02;3.08;;;1.00;;
55813;SDS011;65494;42.818;0.404;2023-05-10T06:24:28;4.10;;;1.30;;
55813;SDS011;65494;42.818;0.404;2023-05-10T06:26:54;4.68;;;1.25;;
55813;SDS011;65494;42.818;0.404;2023-05-10T06:29:20;4.95;;;1.40;;
55813;SDS011;65494;42.818;0.404;2023-05-10T06:31:46;8.27;;;2.47;;
55813;SDS011;65494;42.818;0.404;2023-05-10T06:34:13;9.65;;;2.22;;
55813;SDS011;65494;42.818;0.404;2023-05-10T06:36:39;5.00;;;1.40;;
55813;SDS011;65494;42.818;0.404;2023-05-10T06:39:05;5.32;;;1.58;;
55813;SDS011;65494;42.818;0.404;2023-05-10T06:41:32;3.95;;;1.25;;
55813;SDS011;65494;42.818;0.404;2023-05-10T06:43:58;3.90;;;1.65;;
55813;SDS011;65494;42.818;0.404;2023-05-10T06:46:24;3.35;;;1.23;;
55813;SDS011;65494;42.818;0.404;2023-05-10T06:48:50;3.92;;;1.40;;
55813;SDS011;65494;42.818;0.404;2023-05-10T06:51:16;2.25;;;1.10;;
55813;SDS011;65494;42.818;0.404;2023-05-10T06:53:42;2.88;;;1.10;;
55813;SDS011;65494;42.818;0.404;2023-05-10T06:56:09;3.00;;;1.10;;
55813;SDS011;65494;42.818;0.404;2023-05-10T06:58:35;3.92;;;1.10;;
55813;SDS011;65494;42.818;0.404;2023-05-10T07:01:02;1.98;;;1.20;;
55813;SDS011;65494;42.818;0.404;2023-05-10T07:03:28;3.15;;;1.45;;
55813;SDS011;65494;42.818;0.404;2023-05-10T07:05:59;7.82;;;1.98;;
55813;SDS011;65494;42.818;0.404;2023-05-10T07:08:26;3.45;;;1.10;;
55813;SDS011;65494;42.818;0.404;2023-05-10T07:10:58;3.38;;;1.05;;
55813;SDS011;65494;42.818;0.404;2023-05-10T07:13:25;2.20;;;0.75;;
55813;SDS011;65494;42.818;0.404;2023-05-10T07:15:51;2.97;;;1.00;;
55813;SDS011;65494;42.818;0.404;2023-05-10T07:18:17;1.98;;;0.90;;
55813;SDS011;65494;42.818;0.404;2023-05-10T07:20:43;2.88;;;0.82;;
55813;SDS011;65494;42.818;0.404;2023-05-10T07:23:09;5.50;;;1.60;;
55813;SDS011;65494;42.818;0.404;2023-05-10T07:25:35;4.80;;;0.90;;
55813;SDS011;65494;42.818;0.404;2023-05-10T07:28:02;4.85;;;0.95;;
55813;SDS011;65494;42.818;0.404;2023-05-10T07:30:28;3.03;;;0.90;;
55813;SDS011;65494;42.818;0.404;2023-05-10T07:32:56;2.42;;;0.90;;
55813;SDS011;65494;42.818;0.404;2023-05-10T07:35:22;4.60;;;0.90;;
55813;SDS011;65494;42.818;0.404;2023-05-10T07:37:49;3.75;;;0.93;;
55813;SDS011;65494;42.818;0.404;2023-05-10T07:40:15;5.82;;;0.70;;
55813;SDS011;65494;42.818;0.404;2023-05-10T07:42:41;3.08;;;0.80;;
55813;SDS011;65494;42.818;0.404;2023-05-10T07:45:07;2.33;;;0.95;;
55813;SDS011;65494;42.818;0.404;2023-05-10T07:47:36;2.60;;;0.70;;
55813;SDS011;65494;42.818;0.404;2023-05-10T07:50:04;3.63;;;0.88;;
55813;SDS011;65494;42.818;0.404;2023-05-10T07:52:30;6.00;;;0.82;;
55813;SDS011;65494;42.818;0.404;2023-05-10T07:54:57;4.20;;;0.70;;
55813;SDS011;65494;42.818;0.404;2023-05-10T07:57:23;6.03;;;0.80;;
55813;SDS011;65494;42.818;0.404;2023-05-10T07:59:49;4.63;;;0.70;;
55813;SDS011;65494;42.818;0.404;2023-05-10T08:02:15;5.50;;;0.85;;
55813;SDS011;65494;42.818;0.404;2023-05-10T08:04:41;4.50;;;0.90;;
55813;SDS011;65494;42.818;0.404;2023-05-10T08:07:07;1.35;;;0.63;;
55813;SDS011;65494;42.818;0.404;2023-05-10T08:09:33;3.38;;;0.70;;
55813;SDS011;65494;42.818;0.404;2023-05-10T08:11:59;2.17;;;0.60;;
55813;SDS011;65494;42.818;0.404;2023-05-10T08:14:27;7.00;;;0.77;;
55813;SDS011;65494;42.818;0.404;2023-05-10T08:16:54;5.25;;;0.70;;
55813;SDS011;65494;42.818;0.404;2023-05-10T08:19:20;3.28;;;0.70;;
55813;SDS011;65494;42.818;0.404;2023-05-10T08:21:47;4.18;;;0.73;;
55813;SDS011;65494;42.818;0.404;2023-05-10T08:24:14;4.63;;;0.70;;
55813;SDS011;65494;42.818;0.404;2023-05-10T08:26:40;3.05;;;0.90;;
55813;SDS011;65494;42.818;0.404;2023-05-10T08:29:06;3.47;;;0.82;;
55813;SDS011;65494;42.818;0.404;2023-05-10T08:31:32;5.32;;;0.80;;
55813;SDS011;65494;42.818;0.404;2023-05-10T08:33:58;3.00;;;0.77;;
55813;SDS011;65494;42.818;0.404;2023-05-10T08:36:25;1.70;;;0.70;;
55813;SDS011;65494;42.818;0.404;2023-05-10T08:38:53;3.05;;;0.50;;
55813;SDS011;65494;42.818;0.404;2023-05-10T08:41:19;3.92;;;0.70;;
55813;SDS011;65494;42.818;0.404;2023-05-10T08:43:46;3.85;;;0.85;;
55813;SDS011;65494;42.818;0.404;2023-05-10T08:46:16;4.82;;;0.60;;
55813;SDS011;65494;42.818;0.404;2023-05-10T08:48:44;4.22;;;0.80;;
55813;SDS011;65494;42.818;0.404;2023-05-10T08:51:15;6.30;;;0.90;;
55813;SDS011;65494;42.818;0.404;2023-05-10T08:53:43;9.98;;;0.90;;
55813;SDS011;65494;42.818;0.404;2023-05-10T08:56:10;3.65;;;0.52;;
55813;SDS011;65494;42.818;0.404;2023-05-10T08:58:36;3.03;;;0.75;;
55813;SDS011;65494;42.818;0.404;2023-05-10T09:01:03;4.20;;;0.50;;
55813;SDS011;65494;42.818;0.404;2023-05-10T09:03:29;1.98;;;0.55;;
55813;SDS011;65494;42.818;0.404;2023-05-10T09:05:56;4.78;;;0.70;;
55813;SDS011;65494;42.818;0.404;2023-05-10T09:08:25;6.88;;;1.23;;
55813;SDS011;65494;42.818;0.404;2023-05-10T09:10:51;4.65;;;0.80;;
55813;SDS011;65494;42.818;0.404;2023-05-10T09:13:18;2.00;;;0.55;;
55813;SDS011;65494;42.818;0.404;2023-05-10T09:15:45;3.28;;;0.60;;
55813;SDS011;65494;42.818;0.404;2023-05-10T09:18:11;3.75;;;0.85;;
55813;SDS011;65494;42.818;0.404;2023-05-10T09:20:37;3.67;;;0.88;;
55813;SDS011;65494;42.818;0.404;2023-05-10T09:23:04;4.43;;;0.63;;
55813;SDS011;65494;42.818;0.404;2023-05-10T09:25:30;5.80;;;1.00;;
55813;SDS011;65494;42.818;0.404;2023-05-10T09:27:59;3.15;;;0.60;;
55813;SDS011;65494;42.818;0.404;2023-05-10T09:30:27;5.22;;;0.60;;
55813;SDS011;65494;42.818;0.404;2023-05-10T09:32:53;3.72;;;0.77;;
55813;SDS011;65494;42.818;0.404;2023-05-10T09:35:21;4.30;;;0.70;;
55813;SDS011;65494;42.818;0.404;2023-05-10T09:37:51;5.90;;;0.70;;
55813;SDS011;65494;42.818;0.404;2023-05-10T09:40:25;4.30;;;0.60;;
55813;SDS011;65494;42.818;0.404;2023-05-10T09:43:02;4.78;;;0.80;;
55813;SDS011;65494;42.818;0.404;2023-05-10T09:45:32;4.30;;;0.57;;
55813;SDS011;65494;42.818;0.404;2023-05-10T09:47:58;2.92;;;0.55;;
55813;SDS011;65494;42.818;0.404;2023-05-10T09:50:25;3.65;;;0.40;;
55813;SDS011;65494;42.818;0.404;2023-05-10T09:52:53;2.08;;;0.60;;
55813;SDS011;65494;42.818;0.404;2023-05-10T09:55:23;3.90;;;0.82;;
55813;SDS011;65494;42.818;0.404;2023-05-10T09:57:50;3.25;;;0.50;;
55813;SDS011;65494;42.818;0.404;2023-05-10T10:00:23;3.60;;;1.00;;
55813;SDS011;65494;42.818;0.404;2023-05-10T10:02:58;2.17;;;0.55;;
55813;SDS011;65494;42.818;0.404;2023-05-10T10:05:31;2.35;;;0.40;;
55813;SDS011;65494;42.818;0.404;2023-05-10T10:07:58;3.58;;;0.65;;
55813;SDS011;65494;42.818;0.404;2023-05-10T10:10:28;2.75;;;0.57;;
55813;SDS011;65494;42.818;0.404;2023-05-10T10:12:54;3.00;;;0.75;;
55813;SDS011;65494;42.818;0.404;2023-05-10T10:15:21;3.83;;;0.40;;
55813;SDS011;65494;42.818;0.404;2023-05-10T10:17:48;6.72;;;0.60;;
55813;SDS011;65494;42.818;0.404;2023-05-10T10:20:14;5.78;;;0.82;;
55813;SDS011;65494;42.818;0.404;2023-05-10T10:22:40;1.80;;;0.43;;
55813;SDS011;65494;42.818;0.404;2023-05-10T10:25:07;2.95;;;0.40;;
55813;SDS011;65494;42.818;0.404;2023-05-10T10:34:55;1.80;;;0.38;;
55813;SDS011;65494;42.818;0.404;2023-05-10T10:37:21;2.83;;;0.60;;
55813;SDS011;65494;42.818;0.404;2023-05-10T10:39:48;4.85;;;1.85;;
55813;SDS011;65494;42.818;0.404;2023-05-10T10:42:15;3.28;;;0.70;;
55813;SDS011;65494;42.818;0.404;2023-05-10T10:45:13;8.25;;;3.05;;
55813;SDS011;65494;42.818;0.404;2023-05-10T10:47:39;4.25;;;1.45;;
55813;SDS011;65494;42.818;0.404;2023-05-10T10:50:06;3.35;;;0.95;;
55813;SDS011;65494;42.818;0.404;2023-05-10T10:52:37;3.75;;;0.82;;
55813;SDS011;65494;42.818;0.404;2023-05-10T10:57:42;4.70;;;1.08;;
55813;SDS011;65494;42.818;0.404;2023-05-10T11:02:48;1.63;;;0.50;;
55813;SDS011;65494;42.818;0.404;2023-05-10T11:07:54;2.58;;;0.77;;
55813;SDS011;65494;42.818;0.404;2023-05-10T11:10:24;3.63;;;0.70;;
55813;SDS011;65494;42.818;0.404;2023-05-10T11:13:04;5.03;;;0.82;;
55813;SDS011;65494;42.818;0.404;2023-05-10T11:15:38;3.33;;;0.60;;
55813;SDS011;65494;42.818;0.404;2023-05-10T11:20:43;2.00;;;0.50;;
55813;SDS011;65494;42.818;0.404;2023-05-10T11:23:12;2.38;;;0.60;;
55813;SDS011;65494;42.818;0.404;2023-05-10T11:25:44;2.72;;;0.55;;
55813;SDS011;65494;42.818;0.404;2023-05-10T11:28:10;3.97;;;0.50;;
55813;SDS011;65494;42.818;0.404;2023-05-10T11:30:40;3.33;;;0.60;;
55813;SDS011;65494;42.818;0.404;2023-05-10T11:33:07;4.07;;;0.77;;
55813;SDS011;65494;42.818;0.404;2023-05-10T11:35:39;2.10;;;0.50;;
55813;SDS011;65494;42.818;0.404;2023-05-10T11:38:09;1.52;;;0.70;;
55813;SDS011;65494;42.818;0.404;2023-05-10T11:40:35;3.83;;;0.52;;
55813;SDS011;65494;42.818;0.404;2023-05-10T11:43:02;1.92;;;0.50;;
55813;SDS011;65494;42.818;0.404;2023-05-10T11:45:28;3.63;;;0.63;;
55813;SDS011;65494;42.818;0.404;2023-05-10T11:47:56;8.60;;;0.60;;
55813;SDS011;65494;42.818;0.404;2023-05-10T11:50:22;3.70;;;0.50;;
55813;SDS011;65494;42.818;0.404;2023-05-10T11:52:55;1.67;;;0.60;;
55813;SDS011;65494;42.818;0.404;2023-05-10T11:55:21;2.13;;;0.60;;
55813;SDS011;65494;42.818;0.404;2023-05-10T11:57:52;1.88;;;0.47;;
55813;SDS011;65494;42.818;0.404;2023-05-10T12:00:18;3.15;;;0.50;;
55813;SDS011;65494;42.818;0.404;2023-05-10T12:02:44;2.90;;;0.45;;
55813;SDS011;65494;42.818;0.404;2023-05-10T12:05:11;5.43;;;0.70;;
55813;SDS011;65494;42.818;0.404;2023-05-10T12:07:37;2.63;;;0.35;;
55813;SDS011;65494;42.818;0.404;2023-05-10T12:10:06;2.72;;;0.55;;
55813;SDS011;65494;42.818;0.404;2023-05-10T12:15:10;0.95;;;0.40;;
55813;SDS011;65494;42.818;0.404;2023-05-10T12:17:37;2.17;;;0.57;;
55813;SDS011;65494;42.818;0.404;2023-05-10T12:20:14;1.33;;;0.35;;
55813;SDS011;65494;42.818;0.404;2023-05-10T12:22:40;0.73;;;0.40;;
55813;SDS011;65494;42.818;0.404;2023-05-10T12:25:07;1.80;;;0.50;;
55813;SDS011;65494;42.818;0.404;2023-05-10T12:27:34;2.92;;;0.50;;
55813;SDS011;65494;42.818;0.404;2023-05-10T12:30:00;3.38;;;0.50;;
55813;SDS011;65494;42.818;0.404;2023-05-10T12:32:41;1.75;;;0.40;;
55813;SDS011;65494;42.818;0.404;2023-05-10T12:35:08;2.72;;;0.50;;
55813;SDS011;65494;42.818;0.404;2023-05-10T12:37:34;2.30;;;0.55;;
55813;SDS011;65494;42.818;0.404;2023-05-10T12:40:05;2.10;;;0.52;;
55813;SDS011;65494;42.818;0.404;2023-05-10T12:42:31;2.20;;;0.50;;
55813;SDS011;65494;42.818;0.404;2023-05-10T12:44:57;2.35;;;0.50;;
55813;SDS011;65494;42.818;0.404;2023-05-10T12:47:23;2.60;;;0.50;;
55813;SDS011;65494;42.818;0.404;2023-05-10T12:49:49;1.25;;;0.38;;
55813;SDS011;65494;42.818;0.404;2023-05-10T12:52:16;2.95;;;0.80;;
55813;SDS011;65494;42.818;0.404;2023-05-10T12:54:42;1.77;;;0.57;;
55813;SDS011;65494;42.818;0.404;2023-05-10T12:57:08;1.77;;;0.50;;
55813;SDS011;65494;42.818;0.404;2023-05-10T12:59:35;2.22;;;0.70;;
55813;SDS011;65494;42.818;0.404;2023-05-10T13:02:01;4.70;;;0.55;;
55813;SDS011;65494;42.818;0.404;2023-05-10T13:04:27;3.38;;;0.60;;
55813;SDS011;65494;42.818;0.404;2023-05-10T13:06:53;4.43;;;0.57;;
55813;SDS011;65494;42.818;0.404;2023-05-10T13:09:23;2.47;;;0.70;;
55813;SDS011;65494;42.818;0.404;2023-05-10T13:11:50;3.25;;;0.70;;
55813;SDS011;65494;42.818;0.404;2023-05-10T13:14:16;3.40;;;0.50;;
55813;SDS011;65494;42.818;0.404;2023-05-10T13:16:43;1.95;;;0.60;;
55813;SDS011;65494;42.818;0.404;2023-05-10T13:19:09;3.30;;;0.70;;
55813;SDS011;65494;42.818;0.404;2023-05-10T13:21:36;2.08;;;0.50;;
55813;SDS011;65494;42.818;0.404;2023-05-10T13:24:02;2.75;;;0.50;;
55813;SDS011;65494;42.818;0.404;2023-05-10T13:26:28;3.08;;;0.65;;
55813;SDS011;65494;42.818;0.404;2023-05-10T13:28:54;4.38;;;0.60;;
55813;SDS011;65494;42.818;0.404;2023-05-10T13:31:20;2.50;;;0.77;;
55813;SDS011;65494;42.818;0.404;2023-05-10T13:33:46;3.95;;;0.70;;
55813;SDS011;65494;42.818;0.404;2023-05-10T13:36:13;2.67;;;0.60;;
55813;SDS011;65494;42.818;0.404;2023-05-10T13:38:39;3.55;;;0.65;;
55813;SDS011;65494;42.818;0.404;2023-05-10T13:41:05;2.80;;;0.60;;
55813;SDS011;65494;42.818;0.404;2023-05-10T13:43:31;5.22;;;0.70;;
55813;SDS011;65494;42.818;0.404;2023-05-10T13:45:57;4.80;;;0.80;;
55813;SDS011;65494;42.818;0.404;2023-05-10T13:48:23;4.53;;;0.80;;
55813;SDS011;65494;42.818;0.404;2023-05-10T13:50:49;4.03;;;0.80;;
55813;SDS011;65494;42.818;0.404;2023-05-10T13:53:15;6.05;;;0.75;;
55813;SDS011;65494;42.818;0.404;2023-05-10T13:55:41;8.10;;;0.93;;
55813;SDS011;65494;42.818;0.404;2023-05-10T13:58:07;5.93;;;0.90;;
55813;SDS011;65494;42.818;0.404;2023-05-10T14:00:34;3.55;;;0.70;;
55813;SDS011;65494;42.818;0.404;2023-05-10T14:03:00;5.95;;;1.50;;
55813;SDS011;65494;42.818;0.404;2023-05-10T14:05:26;3.10;;;0.77;;
55813;SDS011;65494;42.818;0.404;2023-05-10T14:07:52;4.95;;;0.98;;
55813;SDS011;65494;42.818;0.404;2023-05-10T14:10:18;5.28;;;0.85;;
55813;SDS011;65494;42.818;0.404;2023-05-10T14:12:45;7.00;;;0.90;;
55813;SDS011;65494;42.818;0.404;2023-05-10T14:15:11;2.90;;;0.90;;
55813;SDS011;65494;42.818;0.404;2023-05-10T14:17:37;4.32;;;0.80;;
55813;SDS011;65494;42.818;0.404;2023-05-10T14:20:03;3.80;;;0.93;;
55813;SDS011;65494;42.818;0.404;2023-05-10T14:22:29;4.05;;;1.20;;
55813;SDS011;65494;42.818;0.404;2023-05-10T14:24:55;3.53;;;0.52;;
55813;SDS011;65494;42.818;0.404;2023-05-10T14:27:22;6.35;;;0.95;;
55813;SDS011;65494;42.818;0.404;2023-05-10T14:29:48;4.85;;;0.98;;
55813;SDS011;65494;42.818;0.404;2023-05-10T14:32:14;5.47;;;1.08;;
55813;SDS011;65494;42.818;0.404;2023-05-10T14:34:40;4.93;;;0.90;;
55813;SDS011;65494;42.818;0.404;2023-05-10T14:37:06;4.30;;;0.90;;
55813;SDS011;65494;42.818;0.404;2023-05-10T14:39:32;8.52;;;1.13;;
55813;SDS011;65494;42.818;0.404;2023-05-10T14:41:59;2.80;;;0.75;;
55813;SDS011;65494;42.818;0.404;2023-05-10T14:44:25;5.85;;;0.80;;
55813;SDS011;65494;42.818;0.404;2023-05-10T14:46:51;2.03;;;0.70;;
55813;SDS011;65494;42.818;0.404;2023-05-10T14:49:17;5.05;;;1.00;;
55813;SDS011;65494;42.818;0.404;2023-05-10T14:51:43;3.63;;;0.80;;
55813;SDS011;65494;42.818;0.404;2023-05-10T14:54:10;5.15;;;0.70;;
55813;SDS011;65494;42.818;0.404;2023-05-10T14:56:36;4.80;;;1.00;;
55813;SDS011;65494;42.818;0.404;2023-05-10T14:59:02;3.95;;;0.70;;
55813;SDS011;65494;42.818;0.404;2023-05-10T15:01:29;9.18;;;0.77;;
55813;SDS011;65494;42.818;0.404;2023-05-10T15:03:56;4.53;;;0.90;;
55813;SDS011;65494;42.818;0.404;2023-05-10T15:06:23;6.35;;;1.40;;
55813;SDS011;65494;42.818;0.404;2023-05-10T15:08:50;5.90;;;0.80;;
55813;SDS011;65494;42.818;0.404;2023-05-10T15:11:16;4.90;;;1.08;;
55813;SDS011;65494;42.818;0.404;2023-05-10T15:13:43;7.03;;;0.95;;
55813;SDS011;65494;42.818;0.404;2023-05-10T15:16:09;3.78;;;0.80;;
55813;SDS011;65494;42.818;0.404;2023-05-10T15:18:35;3.38;;;0.60;;
55813;SDS011;65494;42.818;0.404;2023-05-10T15:21:01;5.53;;;1.00;;
55813;SDS011;65494;42.818;0.404;2023-05-10T15:23:28;5.45;;;1.10;;
55813;SDS011;65494;42.818;0.404;2023-05-10T15:25:54;5.40;;;0.70;;
55813;SDS011;65494;42.818;0.404;2023-05-10T15:28:21;5.50;;;0.90;;